Nearby METAR Reports

 

EGNR - Hawarden (aut), United Kingdom
Distance from station: ESE 33mi, 53km
Updated: 15/09/2019 18:50
NOT Current
Light rain, Overcast
Light rain, Overcast
 Wind from N
Wind: N 2 mph , 4 km/h
Temperature: 13°C
Dew Point: 12°C
Humidity: 94%
Barometer: 1024 hPa
Summary: Light rain
Clouds: Overcast
Visibility: 4 miles , 6 km
Cloud details: Overcast 244 m
2019/09/15 17:50 EGNR 151750Z 01002KT 6000 -RA OVC008 13/12 Q1024
EGOV - Valley Raf, United Kingdom
Distance from station: W 33mi, 53km
Updated: 15/09/2019 20:50
Light rain, Mostly cloudy
Light rain, Mostly cloudy
 Wind from E
Wind: E 7 mph , 11 km/h
Temperature: 12°C
Dew Point: 12°C
Humidity: 100%
Barometer: 1022 hPa
Summary: Light rain
Clouds: Mostly cloudy
Visibility: 6 miles , 10 km
Cloud details: Few Clouds 244 m
Mostly cloudy 1280 m
Mostly cloudy 1524 m
2019/09/15 19:50 EGOV 151950Z AUTO 09006KT 9999 -RA FEW008/// BKN042/// BKN050/// 12/12 Q1022
 
EGGP - Liverpool Airpor, United Kingdom
Distance from station: E 37mi, 59km
Updated: 15/09/2019 21:20
Light rain, Drizzle, Overcast
Light rain, Drizzle, Overcast
 Wind from varies
Wind: varies 3 mph , 6 km/h
Temperature: 13°C
Dew Point: 13°C
Humidity: 100%
Barometer: 1023 hPa
Summary: Light rain, Drizzle
Clouds: Overcast
Visibility: 4 miles , 6 km
Cloud details: Partly cloudy 305 m
Overcast 457 m
2019/09/15 20:20 EGGP 152020Z VRB03KT 6000 -RADZ SCT010 OVC015 13/13 Q1023
EGNH - Blackpool Airpor, United Kingdom
Distance from station: NE 44mi, 72km
Updated: 15/09/2019 20:50
Light rain, Drizzle, Mostly cloudy
Light rain, Drizzle, Mostly cloudy
 Wind from NE
Wind: NE 6 mph , 9 km/h
Temperature: 12°C
Dew Point: 11°C
Humidity: 94%
Barometer: 1023 hPa
Summary: Light rain, Drizzle
Clouds: Mostly cloudy
Visibility: 3 miles , 5 km
Cloud details: Mostly cloudy 122 m
2019/09/15 19:50 EGNH 151950Z 04005KT 5000 -RADZ BKN004 12/11 Q1023
 
EGNO - Wharton, United Kingdom
Distance from station: NE 47mi, 76km
Updated: 13/09/2019 16:50
NOT Current
Few Clouds
Few Clouds
 Wind from NW
Wind: NW 7 mph , 11 km/h
Temperature: 16°C
Dew Point: 9°C
Humidity: 63%
Barometer: 1036 hPa
Clouds: Few Clouds
Visibility: 6 miles , 10 km
Cloud details: Few Clouds 914 m
2019/09/13 15:50 EGNO 131550Z 31006KT 270V350 9999 FEW030 16/09 Q1036
EGOS - Shawbury Raf, United Kingdom
Distance from station: SE 56mi, 89km
Updated: 15/09/2019 20:50
Mostly cloudy
Mostly cloudy
 Wind from NNW
Wind: NNW 2 mph , 4 km/h
Temperature: 13°C
Dew Point: 12°C
Humidity: 94%
Barometer: 1022 hPa
Clouds: Mostly cloudy
Visibility: 6 miles , 10 km
Cloud details: Mostly cloudy 610 m
Mostly cloudy 2743 m
2019/09/15 19:50 EGOS 151950Z AUTO 33002KT 9999 BKN020/// BKN090/// 13/12 Q1022
 
EGCC - Manchester Intl, United Kingdom
Distance from station: E 61mi, 98km
Updated: 15/09/2019 21:20
Rain, Overcast
Rain, Overcast
 Wind from NW
Wind: NW 3 mph , 6 km/h
Temperature: 13°C
Dew Point: 12°C
Humidity: 94%
Barometer: 1023 hPa
Summary: Rain
Clouds: Overcast
Visibility: 4 miles , 6 km
Cloud details: Mostly cloudy 122 m
Overcast 671 m
2019/09/15 20:20 EGCC 152020Z 32003KT 6000 RA BKN004 OVC022 13/12 Q1023
EGNS - Isle Of Man/Rona, United Kingdom
Distance from station: NW 66mi, 107km
Updated: 15/09/2019 21:20
Mostly cloudy
Mostly cloudy
 Wind from varies
Wind: varies 3 mph , 6 km/h
Temperature: 11°C
Dew Point: 10°C
Humidity: 94%
Barometer: 1023 hPa
Clouds: Mostly cloudy
Visibility: 6 miles , 10 km
Cloud details: Few Clouds 213 m
Mostly cloudy 1463 m
2019/09/15 20:20 EGNS 152020Z VRB03KT 9999 FEW007 BKN048 11/10 Q1023 NOSIG
 
EGNM - Leeds And Bradfo, United Kingdom
Distance from station: ENE 95mi, 153km
Updated: 15/09/2019 21:20
Light rain, Mostly cloudy
Light rain, Mostly cloudy
 Wind from WSW
Wind: WSW 2 mph , 4 km/h
Temperature: 12°C
Dew Point: 9°C
Humidity: 82%
Barometer: 1023 hPa
Summary: Light rain
Clouds: Mostly cloudy
Visibility: 6 miles , 10 km
Cloud details: Mostly cloudy 610 m
2019/09/15 20:20 EGNM 152020Z 25002KT 9999 -RA BKN020 12/09 Q1023
EGBB - Birmingham Airpo, United Kingdom
Distance from station: ESE 100mi, 161km
Updated: 15/09/2019 21:20
Clear
Clear
 Wind from varies
Wind: varies 3 mph , 6 km/h
Temperature: 17°C
Dew Point: 14°C
Humidity: 83%
Barometer: 1023 hPa
Summary: Clear
Visibility: greater than 7 miles , 10 km
2019/09/15 20:20 EGBB 152020Z VRB03KT CAVOK 17/14 Q1023